Time;durP1;ratioP1;P1;durP2;ratioP2;P2;SDS_P1;SDS_P2;PMS_P1;PMS_P2;Temp;Humidity;BMP_temperature;BMP_pressure;BME280_temperature;BME280_humidity;BME280_pressure;Samples;Min_cycle;Max_cycle;Signal;HPM_P1;HPM_P2
2022/12/21 00:00:13;;;;;;;34.83;19.47;;;4.40;1.00;;;;;;4989411;28;20222;-57
2022/12/21 00:02:39;;;;;;;36.63;19.53;;;4.40;1.00;;;;;;4990097;28;20274;-56
2022/12/21 00:05:06;;;;;;;30.73;18.73;;;4.30;1.00;;;;;;4986921;28;20448;-56
2022/12/21 00:07:32;;;;;;;33.03;20.03;;;4.30;1.00;;;;;;4980398;28;20517;-56
2022/12/21 00:09:58;;;;;;;39.00;22.03;;;4.20;1.00;;;;;;4988125;28;20430;-55
2022/12/21 00:12:23;;;;;;;38.53;21.33;;;4.20;1.00;;;;;;4985759;28;20723;-56
2022/12/21 00:14:49;;;;;;;31.60;19.20;;;4.20;1.00;;;;;;4979017;28;20294;-55
2022/12/21 00:17:15;;;;;;;41.90;21.27;;;4.20;1.00;;;;;;4985264;28;20221;-56
2022/12/21 00:19:43;;;;;;;33.13;20.00;;;4.30;1.00;;;;;;4981750;28;20453;-56
2022/12/21 00:22:09;;;;;;;33.60;20.37;;;4.30;1.00;;;;;;4990536;28;21043;-56
2022/12/21 00:24:34;;;;;;;32.63;17.20;;;4.30;1.00;;;;;;4984609;28;20546;-56
2022/12/21 00:27:00;;;;;;;33.97;21.10;;;4.30;1.00;;;;;;4986136;28;20587;-56
2022/12/21 00:29:26;;;;;;;29.80;19.43;;;4.30;1.00;;;;;;4984614;28;20188;-55
2022/12/21 00:31:53;;;;;;;34.87;19.13;;;4.30;1.00;;;;;;4983870;28;20205;-56
2022/12/21 00:34:21;;;;;;;36.47;20.20;;;4.30;1.00;;;;;;4979038;28;20204;-57
2022/12/21 00:36:47;;;;;;;32.90;19.47;;;4.40;1.00;;;;;;4974206;28;20453;-57
2022/12/21 00:39:14;;;;;;;32.50;18.77;;;4.30;1.00;;;;;;4980679;28;20448;-56
2022/12/21 00:41:40;;;;;;;29.90;17.60;;;4.50;1.00;;;;;;4976126;28;20452;-56
2022/12/21 00:44:06;;;;;;;32.67;18.13;;;4.40;1.00;;;;;;4973896;28;20442;-56
2022/12/21 00:46:32;;;;;;;34.47;19.33;;;4.40;1.00;;;;;;4974838;28;20284;-56
2022/12/21 00:49:00;;;;;;;33.40;19.73;;;4.40;1.00;;;;;;4977678;28;20611;-56
2022/12/21 00:51:26;;;;;;;28.03;18.27;;;4.40;1.00;;;;;;4975420;28;20457;-56
2022/12/21 00:53:54;;;;;;;32.33;18.83;;;4.40;1.00;;;;;;4977711;28;20784;-57
2022/12/21 00:56:20;;;;;;;33.20;20.30;;;4.50;1.00;;;;;;4972808;28;20877;-56
2022/12/21 00:58:47;;;;;;;25.67;17.33;;;4.20;1.00;;;;;;4976706;28;21023;-57
2022/12/21 01:01:17;;;;;;;30.70;19.10;;;4.50;1.00;;;;;;4979405;28;20419;-56
2022/12/21 01:03:42;;;;;;;29.10;18.10;;;4.60;1.00;;;;;;4972485;28;20539;-55
2022/12/21 01:06:20;;;;;;;35.20;20.83;;;4.60;1.00;;;;;;4962627;28;20539;-55
2022/12/21 01:08:46;;;;;;;29.60;18.33;;;4.70;1.00;;;;;;4983117;28;21424;-56
2022/12/21 01:11:14;;;;;;;34.27;20.13;;;4.70;1.00;;;;;;4983423;28;20455;-55
2022/12/21 01:13:41;;;;;;;32.00;19.00;;;4.70;1.00;;;;;;4978227;28;20452;-56
2022/12/21 01:16:30;;;;;;;28.00;17.50;;;4.60;1.00;;;;;;4979104;28;21887;-56
2022/12/21 01:18:58;;;;;;;31.17;18.20;;;4.60;1.00;;;;;;4982756;28;20846;-57
2022/12/21 01:21:26;;;;;;;32.70;18.47;;;4.60;1.00;;;;;;4980260;28;20555;-56
2022/12/21 01:23:54;;;;;;;29.80;19.20;;;4.60;1.00;;;;;;4981289;28;20464;-56
2022/12/21 01:26:21;;;;;;;38.10;19.53;;;4.50;1.00;;;;;;4981253;28;20524;-57
2022/12/21 01:28:46;;;;;;;33.00;19.80;;;4.60;1.00;;;;;;4985265;28;20452;-55
2022/12/21 01:31:12;;;;;;;32.00;19.30;;;4.60;1.00;;;;;;4978680;28;20793;-55
2022/12/21 01:33:38;;;;;;;29.93;18.77;;;4.60;1.00;;;;;;4978393;28;20189;-55
2022/12/21 01:36:10;;;;;;;29.57;17.50;;;4.60;1.00;;;;;;4979041;28;20975;-55
2022/12/21 01:38:39;;;;;;;34.00;19.47;;;4.50;1.00;;;;;;4980648;28;20453;-56
2022/12/21 01:41:05;;;;;;;32.40;19.10;;;4.60;1.00;;;;;;4984743;28;20451;-56
2022/12/21 01:43:52;;;;;;;30.37;18.23;;;4.60;1.00;;;;;;4988140;28;20445;-55
2022/12/21 01:46:23;;;;;;;27.17;17.90;;;4.70;1.00;;;;;;4983666;28;20447;-56
2022/12/21 01:48:57;;;;;;;32.30;17.53;;;4.60;1.00;;;;;;4984060;28;20493;-56
2022/12/21 01:51:23;;;;;;;29.57;17.70;;;4.50;1.00;;;;;;4986552;28;20444;-56
2022/12/21 01:53:54;;;;;;;31.57;17.90;;;4.50;1.00;;;;;;4985592;28;20456;-56
2022/12/21 01:56:27;;;;;;;29.30;17.93;;;4.50;1.00;;;;;;4981877;28;20444;-55
2022/12/21 01:58:52;;;;;;;33.03;19.57;;;4.60;1.00;;;;;;4985394;28;20990;-56
2022/12/21 02:01:19;;;;;;;28.90;18.10;;;4.60;1.00;;;;;;4985298;28;20451;-56
2022/12/21 02:03:51;;;;;;;31.27;18.83;;;4.60;1.00;;;;;;4986952;28;20714;-55
2022/12/21 02:06:24;;;;;;;29.33;17.93;;;4.60;1.00;;;;;;4981459;28;20512;-56
2022/12/21 02:08:51;;;;;;;28.07;17.87;;;4.50;1.00;;;;;;4984843;28;20453;-55
2022/12/21 02:11:17;;;;;;;28.30;17.53;;;4.70;1.00;;;;;;4981832;28;20467;-55
2022/12/21 02:13:43;;;;;;;26.97;17.47;;;4.60;1.00;;;;;;4988853;28;20478;-55
2022/12/21 02:16:35;;;;;;;31.77;18.40;;;4.70;1.00;;;;;;4979472;28;20453;-56
2022/12/21 02:19:27;;;;;;;32.07;19.27;;;4.70;1.00;;;;;;4979907;28;20195;-54
2022/12/21 02:21:55;;;;;;;28.63;18.00;;;4.60;1.00;;;;;;4944032;28;20950;-55
2022/12/21 02:24:53;;;;;;;29.37;19.37;;;4.50;1.00;;;;;;4983449;28;20455;-56
2022/12/21 02:27:52;;;;;;;25.03;16.90;;;4.40;1.00;;;;;;4982471;28;20459;-56
2022/12/21 02:30:20;;;;;;;26.63;16.40;;;4.50;1.00;;;;;;4983306;28;20460;-56
2022/12/21 02:33:01;;;;;;;29.80;17.03;;;4.50;1.00;;;;;;4981241;28;20905;-56
2022/12/21 02:35:55;;;;;;;26.80;17.80;;;4.50;1.00;;;;;;4974370;28;21233;-56
2022/12/21 02:38:46;;;;;;;28.53;19.00;;;4.40;1.00;;;;;;4975425;28;20569;-57
2022/12/21 02:41:15;;;;;;;28.20;18.37;;;4.50;1.00;;;;;;4974219;28;20452;-56
2022/12/21 02:44:15;;;;;;;26.60;16.40;;;4.50;1.00;;;;;;4976675;28;20473;-56
2022/12/21 02:46:59;;;;;;;26.30;16.40;;;4.50;1.00;;;;;;4975659;28;20463;-55
2022/12/21 02:49:43;;;;;;;28.73;18.03;;;4.50;1.00;;;;;;4971625;28;20515;-56
2022/12/21 02:52:50;;;;;;;23.90;15.80;;;4.50;1.00;;;;;;4973414;28;20970;-56
2022/12/21 02:55:16;;;;;;;26.30;16.97;;;4.50;1.00;;;;;;4967962;28;20501;-56
2022/12/21 02:57:43;;;;;;;25.50;17.17;;;4.50;1.00;;;;;;4973702;28;20571;-56
2022/12/21 03:00:17;;;;;;;31.40;18.57;;;4.50;1.00;;;;;;4972525;28;20190;-56
2022/12/21 03:06:10;;;;;;;24.60;15.70;;;4.50;1.00;;;;;;4980210;28;20446;-56
2022/12/21 03:08:56;;;;;;;26.30;16.33;;;4.60;1.00;;;;;;4987434;28;20453;-56
2022/12/21 03:11:45;;;;;;;26.40;16.33;;;4.50;1.00;;;;;;4984321;28;20484;-56
2022/12/21 03:14:20;;;;;;;25.73;17.93;;;4.60;1.00;;;;;;4982571;28;20771;-55
2022/12/21 03:16:51;;;;;;;27.20;16.07;;;4.60;1.00;;;;;;4983344;28;20551;-56
2022/12/21 03:19:17;;;;;;;24.47;16.37;;;4.50;1.00;;;;;;4982481;28;20448;-55
2022/12/21 03:21:49;;;;;;;29.10;17.00;;;4.50;1.00;;;;;;4984989;28;20442;-55
2022/12/21 03:24:19;;;;;;;28.50;16.30;;;4.60;1.00;;;;;;4990308;28;20205;-56
2022/12/21 03:27:04;;;;;;;25.17;16.10;;;4.60;1.00;;;;;;4988412;28;20458;-57
2022/12/21 03:29:35;;;;;;;21.57;15.00;;;4.60;1.00;;;;;;4989566;28;20466;-56
2022/12/21 03:32:14;;;;;;;26.07;16.27;;;4.50;1.00;;;;;;4982001;28;20451;-56
2022/12/21 03:34:43;;;;;;;28.90;17.00;;;4.50;1.00;;;;;;4983334;28;20797;-55
2022/12/21 03:37:20;;;;;;;26.13;19.03;;;4.50;1.00;;;;;;4988648;28;20506;-56
2022/12/21 03:39:53;;;;;;;31.83;17.83;;;4.50;1.00;;;;;;4985013;28;20443;-56
2022/12/21 03:42:28;;;;;;;26.30;17.83;;;4.40;1.00;;;;;;4990398;28;20775;-56
2022/12/21 03:45:04;;;;;;;25.57;17.10;;;4.40;1.00;;;;;;4988259;28;20463;-56
2022/12/21 03:47:41;;;;;;;25.00;15.90;;;4.30;1.00;;;;;;4987258;28;20494;-56
2022/12/21 03:50:14;;;;;;;28.50;16.10;;;4.40;1.00;;;;;;4985506;28;20441;-55
2022/12/21 03:52:54;;;;;;;26.17;17.10;;;4.40;1.00;;;;;;4986284;28;20509;-56
2022/12/21 03:55:26;;;;;;;30.67;18.57;;;4.40;1.00;;;;;;4986881;28;20470;-55
2022/12/21 03:57:53;;;;;;;29.03;16.77;;;4.40;1.00;;;;;;4985085;28;20480;-56
2022/12/21 04:00:19;;;;;;;25.20;16.57;;;4.40;1.00;;;;;;4982679;28;20444;-55
2022/12/21 04:02:56;;;;;;;33.67;17.93;;;4.50;1.00;;;;;;4985873;28;20589;-57
2022/12/21 04:05:25;;;;;;;26.70;16.63;;;4.50;1.00;;;;;;4985320;28;20200;-55
2022/12/21 04:07:52;;;;;;;27.60;16.93;;;4.40;1.00;;;;;;4988743;28;20455;-56
2022/12/21 04:10:20;;;;;;;26.87;16.70;;;4.40;1.00;;;;;;4984331;28;20474;-56
2022/12/21 04:12:46;;;;;;;26.23;16.87;;;4.40;1.00;;;;;;4983048;28;20548;-56
2022/12/21 04:16:02;;;;;;;28.80;16.63;;;4.50;1.00;;;;;;4976627;28;20452;-56
2022/12/21 04:18:11;;;;;;;30.83;17.33;;;4.50;1.00;;;;;;4979623;28;20984;-56
2022/12/21 04:20:37;;;;;;;31.43;16.90;;;4.40;1.00;;;;;;4980769;28;20491;-55
2022/12/21 04:28:31;;;;;;;25.37;15.53;;;4.50;1.00;;;;;;4986036;28;20475;-56
2022/12/21 04:30:59;;;;;;;21.60;14.90;;;4.60;1.00;;;;;;4985203;28;20448;-55
2022/12/21 04:33:26;;;;;;;28.53;16.70;;;4.50;1.00;;;;;;4980320;28;20957;-56
2022/12/21 04:38:41;;;;;;;24.03;16.70;;;4.60;1.00;;;;;;4975785;28;20534;-56
2022/12/21 04:41:07;;;;;;;25.23;15.73;;;4.50;1.00;;;;;;4980260;28;21920;-56
2022/12/21 04:43:36;;;;;;;24.90;15.90;;;4.50;1.00;;;;;;4977122;28;20452;-55
2022/12/21 04:46:13;;;;;;;26.57;15.30;;;4.50;1.00;;;;;;4973268;28;20193;-55
2022/12/21 04:48:39;;;;;;;27.40;14.93;;;4.50;1.00;;;;;;4979130;28;20496;-56
2022/12/21 04:51:07;;;;;;;25.50;16.37;;;4.60;1.00;;;;;;4980517;28;20544;-56
2022/12/21 04:53:33;;;;;;;24.67;14.83;;;4.60;1.00;;;;;;4995082;28;20447;-57
2022/12/21 04:55:59;;;;;;;25.47;15.07;;;4.60;1.00;;;;;;4985933;28;20949;-55
2022/12/21 04:58:25;;;;;;;25.00;16.17;;;4.60;1.00;;;;;;4989028;28;20499;-55
2022/12/21 05:00:50;;;;;;;22.50;15.03;;;4.60;1.00;;;;;;4987932;28;20815;-57
2022/12/21 05:03:16;;;;;;;27.10;16.30;;;4.60;1.00;;;;;;4984443;28;20188;-56
2022/12/21 05:05:42;;;;;;;27.10;15.87;;;4.60;1.00;;;;;;4988590;28;20639;-57
2022/12/21 05:08:07;;;;;;;23.20;14.23;;;4.70;1.00;;;;;;4987204;28;20659;-57
2022/12/21 05:10:33;;;;;;;26.63;16.10;;;4.90;1.00;;;;;;4987756;28;20271;-57
2022/12/21 05:12:59;;;;;;;22.73;15.07;;;4.90;1.00;;;;;;4988003;28;20252;-56
2022/12/21 05:15:24;;;;;;;24.20;15.30;;;4.90;1.00;;;;;;4985920;28;20227;-56
2022/12/21 05:17:50;;;;;;;27.47;16.30;;;4.90;1.00;;;;;;4985145;28;21637;-56
2022/12/21 05:20:15;;;;;;;27.93;15.87;;;4.90;1.00;;;;;;4988411;28;20268;-57
2022/12/21 05:22:46;;;;;;;25.90;15.90;;;4.90;1.00;;;;;;4987776;28;20197;-57
2022/12/21 05:25:11;;;;;;;22.97;14.57;;;4.80;1.00;;;;;;4988014;28;20587;-56
2022/12/21 05:27:37;;;;;;;27.30;16.90;;;4.80;1.00;;;;;;4979549;28;20543;-57
2022/12/21 05:30:04;;;;;;;25.10;15.70;;;4.80;1.00;;;;;;4986967;28;20548;-57
2022/12/21 05:32:29;;;;;;;29.53;18.93;;;4.90;1.00;;;;;;4987960;28;20219;-56
2022/12/21 05:34:55;;;;;;;24.87;16.40;;;4.80;1.00;;;;;;4987868;28;20591;-56
2022/12/21 05:37:21;;;;;;;32.80;17.17;;;4.80;1.00;;;;;;4988129;28;20212;-56
2022/12/21 05:39:46;;;;;;;23.13;15.20;;;4.80;1.00;;;;;;4987760;28;20204;-56
2022/12/21 05:42:12;;;;;;;23.80;14.40;;;4.80;1.00;;;;;;4987836;28;20263;-56
2022/12/21 05:44:37;;;;;;;25.47;14.60;;;4.80;1.00;;;;;;4988685;28;20686;-57
2022/12/21 05:47:03;;;;;;;23.00;16.27;;;4.80;1.00;;;;;;4991790;28;20207;-56
2022/12/21 05:49:29;;;;;;;26.47;17.63;;;4.90;1.00;;;;;;4986722;28;20303;-56
2022/12/21 05:51:54;;;;;;;26.63;17.73;;;4.90;1.00;;;;;;4999173;28;20243;-56
2022/12/21 05:54:20;;;;;;;26.33;17.17;;;5.00;1.00;;;;;;4983857;28;20274;-56
2022/12/21 05:56:45;;;;;;;31.23;16.47;;;5.00;1.00;;;;;;4987016;28;20642;-57
2022/12/21 05:59:11;;;;;;;23.30;16.63;;;5.00;1.00;;;;;;4983093;28;20185;-57
2022/12/21 06:01:36;;;;;;;26.63;15.50;;;5.00;1.00;;;;;;4982783;28;20185;-56
2022/12/21 06:04:03;;;;;;;26.03;16.13;;;5.00;1.00;;;;;;4984755;28;20274;-56
2022/12/21 06:06:28;;;;;;;23.63;16.47;;;5.10;1.00;;;;;;4997050;28;20697;-57
2022/12/21 06:08:54;;;;;;;30.90;17.00;;;5.10;1.00;;;;;;4982090;28;20463;-56
2022/12/21 06:11:23;;;;;;;28.03;17.50;;;5.10;1.00;;;;;;4986416;28;20240;-57
2022/12/21 06:13:51;;;;;;;26.40;17.43;;;5.30;1.00;;;;;;4985995;28;20196;-57
2022/12/21 06:16:18;;;;;;;28.43;18.63;;;5.20;1.00;;;;;;4988622;28;20506;-56
2022/12/21 06:18:44;;;;;;;31.43;19.47;;;5.30;1.00;;;;;;4986397;28;20533;-57
2022/12/21 06:21:12;;;;;;;26.17;19.00;;;5.30;1.00;;;;;;4988718;28;20427;-56
2022/12/21 06:23:38;;;;;;;25.00;17.00;;;5.20;1.00;;;;;;4987839;28;20440;-56
2022/12/21 06:26:05;;;;;;;27.57;17.10;;;5.20;1.00;;;;;;4987495;28;20452;-56
2022/12/21 06:28:31;;;;;;;31.20;19.40;;;5.30;1.00;;;;;;4986035;28;20430;-56
2022/12/21 06:31:09;;;;;;;28.60;17.90;;;5.30;1.00;;;;;;4989189;28;20458;-57
2022/12/21 06:33:35;;;;;;;31.03;18.00;;;5.30;1.00;;;;;;4990293;28;20487;-57
2022/12/21 06:36:01;;;;;;;28.87;17.57;;;5.20;1.00;;;;;;4983820;28;20489;-58
2022/12/21 06:38:27;;;;;;;30.33;17.90;;;5.30;1.00;;;;;;4988254;28;20468;-56
2022/12/21 06:41:00;;;;;;;32.37;18.70;;;5.30;1.00;;;;;;4987467;28;20220;-57
2022/12/21 06:43:27;;;;;;;25.50;16.60;;;5.40;1.00;;;;;;4987240;28;20449;-56
2022/12/21 06:46:04;;;;;;;35.47;19.50;;;5.40;1.00;;;;;;4987132;28;20436;-61
2022/12/21 06:48:31;;;;;;;29.80;18.80;;;5.30;1.00;;;;;;4985622;28;20519;-56
2022/12/21 06:51:03;;;;;;;31.57;18.87;;;5.30;1.00;;;;;;4971937;28;20821;-57
2022/12/21 06:53:34;;;;;;;26.33;17.17;;;5.40;1.00;;;;;;4997351;28;20448;-56
2022/12/21 06:56:01;;;;;;;31.87;18.10;;;5.50;1.00;;;;;;4986538;28;20469;-57
2022/12/21 06:58:26;;;;;;;32.80;19.10;;;5.50;1.00;;;;;;4990603;28;20475;-57
2022/12/21 07:00:52;;;;;;;35.70;18.47;;;7.00;1.00;;;;;;4994114;28;20456;-56
2022/12/21 07:03:17;;;;;;;32.30;19.33;;;5.50;1.00;;;;;;4991463;28;20201;-55
2022/12/21 07:05:43;;;;;;;32.57;16.87;;;5.50;1.00;;;;;;4991606;28;20204;-56
2022/12/21 07:08:09;;;;;;;33.43;19.30;;;6.10;1.00;;;;;;4983750;28;20193;-56
2022/12/21 07:10:37;;;;;;;29.40;16.50;;;5.50;1.00;;;;;;4986559;28;20248;-57
2022/12/21 07:13:03;;;;;;;31.73;18.27;;;5.40;1.00;;;;;;4990915;28;20277;-57
2022/12/21 07:15:32;;;;;;;29.43;18.87;;;5.50;1.00;;;;;;4993524;28;20529;-57
2022/12/21 07:17:57;;;;;;;27.40;17.07;;;5.50;1.00;;;;;;4989847;28;20217;-57
2022/12/21 07:20:23;;;;;;;26.20;17.77;;;5.50;1.00;;;;;;4990243;28;20463;-57
2022/12/21 07:22:49;;;;;;;30.30;17.37;;;5.50;1.00;;;;;;4987699;28;20260;-56
2022/12/21 07:25:15;;;;;;;32.30;18.50;;;5.50;1.00;;;;;;4989842;28;20197;-56
2022/12/21 07:27:40;;;;;;;29.67;17.87;;;5.50;1.00;;;;;;4989488;28;20998;-56
2022/12/21 07:30:07;;;;;;;27.53;16.70;;;5.50;1.00;;;;;;4987874;28;20201;-56
2022/12/21 07:32:32;;;;;;;29.93;17.20;;;5.60;1.00;;;;;;4992917;28;20259;-56
2022/12/21 07:34:58;;;;;;;31.30;17.43;;;5.60;1.00;;;;;;4989209;28;20567;-56
2022/12/21 07:37:24;;;;;;;28.13;17.30;;;5.60;1.00;;;;;;4986984;28;20220;-57
2022/12/21 07:39:49;;;;;;;28.40;16.50;;;5.60;1.00;;;;;;4989866;28;20280;-57
2022/12/21 07:42:15;;;;;;;27.30;17.87;;;5.70;1.00;;;;;;4990789;28;20185;-56
2022/12/21 07:44:40;;;;;;;33.87;20.77;;;5.70;1.00;;;;;;4990758;28;20719;-57
2022/12/21 07:47:06;;;;;;;28.53;16.97;;;5.70;1.00;;;;;;4990561;28;20250;-57
2022/12/21 07:49:33;;;;;;;29.90;17.83;;;5.70;1.00;;;;;;4996581;28;20703;-56
2022/12/21 07:51:59;;;;;;;31.43;18.33;;;5.70;1.00;;;;;;5011730;28;20192;-56
2022/12/21 07:54:25;;;;;;;31.43;18.23;;;5.70;1.00;;;;;;4991530;28;20448;-56
2022/12/21 07:56:51;;;;;;;28.27;17.87;;;5.60;1.00;;;;;;4997119;28;20441;-56
2022/12/21 07:59:16;;;;;;;28.23;17.90;;;5.60;1.00;;;;;;4989645;28;20328;-56
2022/12/21 08:01:42;;;;;;;29.37;17.23;;;5.60;1.00;;;;;;4996131;28;20688;-57
2022/12/21 08:04:08;;;;;;;32.60;19.30;;;5.70;1.00;;;;;;4986251;28;20235;-56
2022/12/21 08:06:34;;;;;;;28.70;18.47;;;5.70;1.00;;;;;;4986719;28;20190;-57
2022/12/21 08:09:00;;;;;;;30.30;17.30;;;5.70;1.00;;;;;;4990332;28;20197;-56
2022/12/21 08:11:27;;;;;;;27.97;16.37;;;5.70;1.00;;;;;;4989831;28;20515;-57
2022/12/21 08:13:53;;;;;;;33.17;18.57;;;5.70;1.00;;;;;;4993733;28;20456;-57
2022/12/21 08:16:19;;;;;;;29.13;18.00;;;5.80;1.00;;;;;;4988129;28;20460;-56
2022/12/21 08:18:45;;;;;;;29.77;18.77;;;5.70;1.00;;;;;;4994915;28;20582;-58
2022/12/21 08:21:11;;;;;;;32.40;18.43;;;5.70;1.00;;;;;;4992690;28;20488;-57
2022/12/21 08:23:36;;;;;;;28.17;18.53;;;5.80;1.00;;;;;;4987077;28;20511;-57
2022/12/21 08:26:04;;;;;;;34.00;18.27;;;5.90;1.00;;;;;;4989606;28;20417;-57
2022/12/21 08:28:31;;;;;;;27.50;16.73;;;5.90;1.00;;;;;;4988935;28;20768;-56
2022/12/21 08:31:05;;;;;;;30.93;18.07;;;5.90;1.00;;;;;;4989979;28;20427;-57
2022/12/21 08:33:31;;;;;;;24.40;16.40;;;5.90;1.00;;;;;;4994621;28;20497;-57
2022/12/21 08:35:57;;;;;;;31.30;18.77;;;5.90;1.00;;;;;;4991195;28;20458;-57
2022/12/21 08:38:23;;;;;;;28.90;16.90;;;5.90;1.00;;;;;;4988270;28;20237;-56
2022/12/21 08:40:48;;;;;;;28.43;16.10;;;6.00;1.00;;;;;;4989663;28;20263;-57
2022/12/21 08:43:14;;;;;;;26.63;16.77;;;6.00;1.00;;;;;;4989809;28;20920;-57
2022/12/21 08:45:40;;;;;;;27.50;17.47;;;6.00;1.00;;;;;;4990175;28;20205;-57
2022/12/21 08:48:06;;;;;;;29.00;16.13;;;6.00;1.00;;;;;;5003517;28;20487;-61
2022/12/21 08:50:31;;;;;;;26.00;17.40;;;6.00;1.00;;;;;;5003686;28;20746;-58
2022/12/21 08:52:57;;;;;;;29.60;16.77;;;6.10;1.00;;;;;;4991119;28;20192;-57
2022/12/21 08:55:23;;;;;;;26.40;15.20;;;6.20;1.00;;;;;;4989677;28;20196;-57
2022/12/21 08:57:48;;;;;;;30.40;16.77;;;6.10;1.00;;;;;;4990014;28;20224;-58
2022/12/21 09:00:14;;;;;;;22.77;15.23;;;6.10;1.00;;;;;;4994300;28;20197;-57
2022/12/21 09:02:40;;;;;;;29.10;16.90;;;6.00;1.00;;;;;;4989375;28;20536;-57
2022/12/21 09:05:06;;;;;;;26.13;17.17;;;5.90;1.00;;;;;;4988782;28;20197;-58
2022/12/21 09:07:32;;;;;;;25.63;15.40;;;6.00;1.00;;;;;;4988402;28;20295;-58
2022/12/21 09:09:57;;;;;;;23.83;15.20;;;6.00;1.00;;;;;;4990623;28;20422;-57
2022/12/21 09:12:23;;;;;;;24.17;17.23;;;6.10;1.00;;;;;;4987009;28;20622;-58
2022/12/21 09:14:48;;;;;;;24.80;16.13;;;6.10;1.00;;;;;;4987530;28;20202;-57
2022/12/21 09:17:14;;;;;;;23.87;16.10;;;6.20;1.00;;;;;;4988072;28;20255;-57
2022/12/21 09:19:40;;;;;;;26.60;16.30;;;6.20;1.00;;;;;;4992265;28;20200;-57
2022/12/21 09:22:05;;;;;;;22.93;14.57;;;6.30;1.00;;;;;;5010110;28;20693;-56
2022/12/21 09:24:31;;;;;;;26.93;15.33;;;6.10;1.00;;;;;;4994527;28;20190;-57
2022/12/21 09:26:57;;;;;;;22.60;15.20;;;6.00;1.00;;;;;;4990089;28;20240;-58
2022/12/21 09:29:23;;;;;;;33.80;15.43;;;6.00;1.00;;;;;;4990388;28;20280;-57
2022/12/21 09:31:52;;;;;;;23.40;14.83;;;6.20;1.00;;;;;;4990132;28;20201;-57
2022/12/21 09:34:18;;;;;;;24.00;15.60;;;6.20;1.00;;;;;;4990128;28;20459;-57
2022/12/21 09:36:45;;;;;;;22.13;14.40;;;6.20;1.00;;;;;;4997758;28;20798;-58
2022/12/21 09:39:10;;;;;;;25.40;15.87;;;6.10;1.00;;;;;;5005098;28;20779;-57
2022/12/21 09:41:52;;;;;;;22.47;14.80;;;6.10;1.00;;;;;;4990823;28;20452;-57
2022/12/21 09:44:26;;;;;;;23.20;15.20;;;6.20;1.00;;;;;;4989950;28;20181;-57
2022/12/21 09:46:56;;;;;;;25.10;15.90;;;6.20;1.00;;;;;;4989899;28;20488;-57
2022/12/21 09:49:43;;;;;;;20.53;14.17;;;6.20;1.00;;;;;;4994565;28;20521;-56
2022/12/21 09:52:19;;;;;;;22.77;15.00;;;6.20;1.00;;;;;;4993764;28;20483;-56
2022/12/21 09:55:07;;;;;;;25.50;14.57;;;6.00;1.00;;;;;;4988850;28;20505;-56
2022/12/21 09:57:35;;;;;;;21.03;14.10;;;6.20;1.00;;;;;;4989877;28;20539;-57
2022/12/21 10:00:07;;;;;;;23.70;15.17;;;6.30;1.00;;;;;;4989787;28;20450;-56
2022/12/21 10:02:58;;;;;;;22.00;15.17;;;6.30;1.00;;;;;;4989858;28;20959;-56
2022/12/21 10:05:48;;;;;;;23.07;15.97;;;6.30;1.00;;;;;;4990032;28;20786;-58
2022/12/21 10:08:39;;;;;;;20.03;13.87;;;6.20;1.00;;;;;;4989843;28;20433;-58
2022/12/21 10:11:29;;;;;;;24.40;15.50;;;6.30;1.00;;;;;;4988359;28;20532;-57
2022/12/21 10:14:20;;;;;;;24.87;16.17;;;6.30;1.00;;;;;;4989287;28;20951;-56
2022/12/21 10:17:18;;;;;;;28.90;16.33;;;6.30;1.00;;;;;;4989520;28;20432;-56
2022/12/21 10:20:18;;;;;;;19.37;13.37;;;6.40;1.00;;;;;;4951460;28;20445;-55
2022/12/21 10:22:50;;;;;;;23.43;15.33;;;6.50;1.00;;;;;;4901166;28;20454;-57
2022/12/21 10:25:22;;;;;;;24.07;15.70;;;6.60;1.00;;;;;;4989493;28;20436;-56
2022/12/21 10:28:16;;;;;;;24.10;15.13;;;6.60;1.00;;;;;;4989696;28;20416;-58
2022/12/21 10:30:46;;;;;;;23.53;15.40;;;6.50;1.00;;;;;;4943876;28;20445;-57
2022/12/21 10:33:12;;;;;;;23.77;13.70;;;6.50;1.00;;;;;;4989285;28;20989;-58
2022/12/21 10:35:39;;;;;;;20.90;13.57;;;6.50;1.00;;;;;;4989848;28;20878;-56
2022/12/21 10:38:15;;;;;;;21.50;14.23;;;6.50;1.00;;;;;;4988385;28;20474;-56
2022/12/21 10:40:43;;;;;;;17.27;12.40;;;6.50;1.00;;;;;;4989185;28;20475;-56
2022/12/21 10:43:11;;;;;;;19.40;13.60;;;6.50;1.00;;;;;;4998945;28;20944;-57
2022/12/21 10:45:37;;;;;;;19.87;14.00;;;6.40;1.00;;;;;;5008835;28;20502;-56
2022/12/21 10:48:02;;;;;;;20.67;14.07;;;6.40;1.00;;;;;;5009051;28;20495;-54
2022/12/21 10:50:33;;;;;;;19.67;13.20;;;6.40;1.00;;;;;;5012002;28;20223;-54
2022/12/21 10:53:15;;;;;;;22.00;14.07;;;6.50;1.00;;;;;;4997980;28;20190;-54
2022/12/21 10:55:43;;;;;;;18.30;13.77;;;6.40;1.00;;;;;;4980342;28;20459;-52
2022/12/21 10:58:24;;;;;;;21.40;13.73;;;6.40;1.00;;;;;;5000656;28;20499;-55
2022/12/21 11:01:15;;;;;;;19.93;14.10;;;6.60;1.00;;;;;;5003320;28;20440;-54
2022/12/21 11:03:42;;;;;;;18.47;12.53;;;6.60;1.00;;;;;;4995416;28;20441;-54
2022/12/21 11:06:13;;;;;;;18.60;13.10;;;6.60;1.00;;;;;;5002735;28;20432;-54
2022/12/21 11:08:49;;;;;;;18.93;13.70;;;6.50;1.00;;;;;;4998688;28;20547;-54
2022/12/21 11:11:33;;;;;;;26.00;14.47;;;6.50;1.00;;;;;;4998288;28;20422;-55
2022/12/21 11:14:00;;;;;;;20.07;13.60;;;6.60;1.00;;;;;;4996288;28;20452;-53
2022/12/21 11:16:31;;;;;;;19.63;13.80;;;6.70;1.00;;;;;;5002194;28;20443;-55
2022/12/21 11:19:01;;;;;;;20.10;13.63;;;6.70;1.00;;;;;;5007462;28;20453;-54
2022/12/21 11:21:42;;;;;;;19.87;13.17;;;6.70;1.00;;;;;;5000508;28;20462;-56
2022/12/21 11:24:22;;;;;;;22.90;14.90;;;6.70;1.00;;;;;;4995062;28;20514;-54
2022/12/21 11:26:55;;;;;;;20.10;13.30;;;6.80;1.00;;;;;;4995146;28;20526;-54
2022/12/21 11:29:25;;;;;;;20.53;13.80;;;6.90;1.00;;;;;;4997203;28;20415;-54
2022/12/21 11:31:53;;;;;;;22.87;14.97;;;7.00;1.00;;;;;;4998117;28;20795;-54
2022/12/21 11:34:34;;;;;;;18.40;12.50;;;7.00;1.00;;;;;;5003535;28;20464;-53
2022/12/21 11:37:19;;;;;;;20.07;13.23;;;7.00;1.00;;;;;;4988140;28;20523;-55
2022/12/21 11:39:45;;;;;;;21.03;13.30;;;7.00;1.00;;;;;;5002926;28;20469;-54
2022/12/21 11:42:22;;;;;;;22.40;14.70;;;7.00;1.00;;;;;;5011714;28;20909;-52
2022/12/21 11:45:06;;;;;;;19.37;13.60;;;7.00;1.00;;;;;;5000844;28;21006;-52
2022/12/21 11:47:55;;;;;;;18.33;12.63;;;7.00;1.00;;;;;;4990594;28;20503;-55
2022/12/21 11:50:42;;;;;;;19.20;12.63;;;7.00;1.00;;;;;;5005152;28;20491;-53
2022/12/21 11:53:15;;;;;;;20.07;13.70;;;7.00;1.00;;;;;;4998008;28;20512;-55
2022/12/21 11:55:59;;;;;;;20.13;13.53;;;6.90;1.00;;;;;;5006690;28;20478;-55
2022/12/21 11:58:40;;;;;;;20.97;13.40;;;6.90;1.00;;;;;;5010413;28;20538;-54
2022/12/21 12:01:52;;;;;;;19.37;14.50;;;7.00;1.00;;;;;;5005803;28;20447;-55
2022/12/21 12:04:56;;;;;;;18.97;14.13;;;7.20;1.00;;;;;;4972789;28;20460;-53
2022/12/21 12:07:55;;;;;;;18.53;13.37;;;7.20;1.00;;;;;;4905377;29;20490;-54
2022/12/21 12:10:55;;;;;;;22.07;14.07;;;7.20;1.00;;;;;;4915917;29;20523;-53
2022/12/21 12:13:55;;;;;;;22.80;16.20;;;7.10;1.00;;;;;;4990137;28;20437;-57
2022/12/21 12:17:02;;;;;;;22.23;15.17;;;7.20;1.00;;;;;;5000625;28;20412;-54
2022/12/21 12:19:39;;;;;;;20.00;14.20;;;7.20;1.00;;;;;;5012527;28;20524;-53
2022/12/21 12:22:33;;;;;;;23.57;13.93;;;7.20;1.00;;;;;;5002843;28;20451;-53
2022/12/21 12:25:22;;;;;;;19.53;14.20;;;7.20;1.00;;;;;;5006363;28;20949;-53
2022/12/21 12:28:14;;;;;;;24.00;14.67;;;7.30;1.00;;;;;;4996998;28;20516;-55
2022/12/21 12:31:16;;;;;;;19.50;13.40;;;7.20;1.00;;;;;;4994111;28;20430;-56
2022/12/21 12:34:06;;;;;;;20.80;14.67;;;7.10;1.00;;;;;;5006124;28;20960;-53
2022/12/21 12:36:56;;;;;;;24.40;13.57;;;7.00;1.00;;;;;;4996832;28;20440;-54
2022/12/21 12:39:45;;;;;;;23.50;15.10;;;7.00;1.00;;;;;;5010629;28;20423;-53
2022/12/21 12:42:23;;;;;;;24.30;15.27;;;7.00;1.00;;;;;;4978202;28;20453;-54
2022/12/21 12:45:07;;;;;;;22.37;14.23;;;7.00;1.00;;;;;;4994308;28;20440;-55
2022/12/21 12:48:07;;;;;;;25.10;15.60;;;7.00;1.00;;;;;;4996751;28;20534;-53
2022/12/21 12:50:52;;;;;;;19.80;13.10;;;7.00;1.00;;;;;;5004243;28;20862;-54
2022/12/21 12:53:42;;;;;;;18.63;12.83;;;7.10;1.00;;;;;;4999529;28;20451;-55
2022/12/21 12:56:32;;;;;;;19.83;12.73;;;7.00;1.00;;;;;;5012211;28;20794;-53
2022/12/21 12:59:32;;;;;;;24.67;15.80;;;6.90;1.00;;;;;;5004375;28;20582;-56
2022/12/21 13:02:31;;;;;;;24.63;14.03;;;7.00;1.00;;;;;;4993809;28;20919;-54
2022/12/21 13:05:24;;;;;;;20.97;14.80;;;7.10;1.00;;;;;;5002329;28;20411;-55
2022/12/21 13:08:04;;;;;;;24.40;15.00;;;7.10;1.00;;;;;;4993542;28;20455;-54
2022/12/21 13:10:45;;;;;;;20.77;13.60;;;7.00;1.00;;;;;;5000548;28;20534;-56
2022/12/21 13:13:32;;;;;;;20.23;14.30;;;7.00;1.00;;;;;;4998899;28;20503;-54
2022/12/21 13:16:04;;;;;;;21.30;14.57;;;6.90;1.00;;;;;;5013094;28;20525;-53
2022/12/21 13:18:46;;;;;;;21.97;12.73;;;6.90;1.00;;;;;;5000718;28;20467;-55
2022/12/21 13:21:14;;;;;;;21.67;13.77;;;6.90;1.00;;;;;;5003215;28;20443;-54
2022/12/21 13:23:53;;;;;;;20.13;14.07;;;6.90;1.00;;;;;;5007594;28;20411;-53
2022/12/21 13:26:27;;;;;;;22.27;14.63;;;6.90;1.00;;;;;;4996599;28;20929;-56